Time;durP1;ratioP1;P1;durP2;ratioP2;P2;SDS_P1;SDS_P2;PMS_P1;PMS_P2;Temp;Humidity;BMP_temperature;BMP_pressure;BME280_temperature;BME280_humidity;BME280_pressure;Samples;Min_cycle;Max_cycle;Signal;HPM_P1;HPM_P2
2022/12/12 00:01:00;;;;;;;15.90;8.57;;;;;;;;;;4863839;29;20026;-94
2022/12/12 00:03:26;;;;;;;15.77;7.82;;;;;;;;;;4863955;29;20486;-93
2022/12/12 00:05:54;;;;;;;15.55;8.18;;;;;;;;;;4863894;29;20109;-94
2022/12/12 00:08:20;;;;;;;15.60;7.53;;;;;;;;;;4863952;29;20060;-93
2022/12/12 00:10:47;;;;;;;13.90;7.40;;;;;;;;;;4864073;29;20029;-94
2022/12/12 00:13:13;;;;;;;16.15;8.88;;;;;;;;;;4863489;29;20089;-94
2022/12/12 00:15:40;;;;;;;15.80;7.63;;;;;;;;;;4863257;29;20040;-93
2022/12/12 00:18:06;;;;;;;13.07;7.10;;;;;;;;;;4863502;29;20039;-93
2022/12/12 00:20:32;;;;;;;13.13;7.28;;;;;;;;;;4863217;29;20401;-94
2022/12/12 00:22:58;;;;;;;15.00;7.88;;;;;;;;;;4879931;29;20040;-93
2022/12/12 00:25:25;;;;;;;13.85;8.25;;;;;;;;;;4863574;29;20040;-93
2022/12/12 00:27:51;;;;;;;14.57;8.02;;;;;;;;;;4864011;29;20040;-92
2022/12/12 00:30:17;;;;;;;15.05;8.25;;;;;;;;;;4863015;29;20399;-93
2022/12/12 00:32:43;;;;;;;14.18;7.85;;;;;;;;;;4863032;29;20490;-91
2022/12/12 00:35:10;;;;;;;16.80;8.52;;;;;;;;;;4862816;29;20029;-93
2022/12/12 00:37:36;;;;;;;13.50;7.63;;;;;;;;;;4863578;29;20029;-93
2022/12/12 00:40:03;;;;;;;17.02;9.00;;;;;;;;;;4868364;29;20025;-91
2022/12/12 00:48:43;;;;;;;14.15;8.07;;;;;;;;;;4880546;29;20410;-92
2022/12/12 00:51:11;;;;;;;15.90;7.85;;;;;;;;;;4862954;29;20036;-91
2022/12/12 00:53:38;;;;;;;17.70;8.85;;;;;;;;;;4862992;29;20128;-92
2022/12/12 00:56:05;;;;;;;16.33;8.73;;;;;;;;;;4863524;29;20029;-92
2022/12/12 00:58:31;;;;;;;16.08;8.70;;;;;;;;;;4862896;29;20069;-91
2022/12/12 01:01:05;;;;;;;14.05;8.00;;;;;;;;;;4862627;29;20025;-91
2022/12/12 01:03:32;;;;;;;15.50;8.77;;;;;;;;;;4862785;29;20044;-93
2022/12/12 01:05:58;;;;;;;18.45;9.85;;;;;;;;;;4862987;29;20128;-91
2022/12/12 01:08:24;;;;;;;18.15;9.63;;;;;;;;;;4859441;29;20113;-92
2022/12/12 01:10:51;;;;;;;17.92;10.13;;;;;;;;;;4860108;29;20036;-93
2022/12/12 01:13:17;;;;;;;18.23;8.85;;;;;;;;;;4859620;29;20141;-92
2022/12/12 01:15:43;;;;;;;16.77;9.43;;;;;;;;;;4859221;29;20065;-91
2022/12/12 01:18:09;;;;;;;18.27;9.88;;;;;;;;;;4858978;29;20040;-92
2022/12/12 01:20:35;;;;;;;20.27;10.38;;;;;;;;;;4858902;29;20030;-92
2022/12/12 01:23:04;;;;;;;18.73;10.25;;;;;;;;;;4858331;29;20038;-91
2022/12/12 01:25:30;;;;;;;20.15;10.23;;;;;;;;;;4858889;29;20033;-91
2022/12/12 01:28:12;;;;;;;18.58;10.15;;;;;;;;;;4859046;29;20041;-90
2022/12/12 01:30:38;;;;;;;18.60;10.63;;;;;;;;;;4859332;29;20095;-90
2022/12/12 01:33:04;;;;;;;20.67;10.23;;;;;;;;;;4858902;29;20045;-91
2022/12/12 01:35:31;;;;;;;20.70;11.05;;;;;;;;;;4859131;29;20026;-92
2022/12/12 01:37:57;;;;;;;22.23;11.57;;;;;;;;;;4858960;29;20038;-90
2022/12/12 01:40:24;;;;;;;21.80;11.60;;;;;;;;;;4859111;29;20368;-92
2022/12/12 01:42:51;;;;;;;20.10;11.13;;;;;;;;;;4858811;29;20120;-93
2022/12/12 01:45:36;;;;;;;21.10;11.02;;;;;;;;;;4859044;29;20041;-93
2022/12/12 01:48:02;;;;;;;20.73;11.13;;;;;;;;;;4858601;29;20025;-93
2022/12/12 01:50:28;;;;;;;24.58;11.98;;;;;;;;;;4859708;29;20033;-92
2022/12/12 01:52:54;;;;;;;22.42;11.95;;;;;;;;;;4858974;29;20037;-93
2022/12/12 01:55:22;;;;;;;21.65;11.55;;;;;;;;;;4859303;29;20048;-90
2022/12/12 01:57:50;;;;;;;21.70;11.05;;;;;;;;;;4859066;29;20120;-93
2022/12/12 02:00:16;;;;;;;24.95;11.20;;;;;;;;;;4858776;29;20112;-92
2022/12/12 02:02:45;;;;;;;19.83;10.85;;;;;;;;;;4858556;29;20034;-92
2022/12/12 02:05:42;;;;;;;19.55;10.05;;;;;;;;;;4858627;29;20225;-91
2022/12/12 02:08:09;;;;;;;20.92;10.45;;;;;;;;;;4869646;29;20072;-92
2022/12/12 02:13:39;;;;;;;17.63;9.13;;;;;;;;;;4878311;29;20056;-91
2022/12/12 02:16:15;;;;;;;19.75;10.70;;;;;;;;;;4861387;29;20059;-91
2022/12/12 02:18:47;;;;;;;19.63;10.30;;;;;;;;;;4861603;29;20040;-92
2022/12/12 02:21:28;;;;;;;20.33;9.98;;;;;;;;;;4861765;29;20084;-91
2022/12/12 02:24:13;;;;;;;19.25;9.85;;;;;;;;;;4872692;29;20085;-90
2022/12/12 02:26:54;;;;;;;18.58;9.18;;;;;;;;;;4862179;29;20033;-93
2022/12/12 02:29:24;;;;;;;17.13;9.30;;;;;;;;;;4861546;29;20037;-94
2022/12/12 02:32:08;;;;;;;16.70;9.38;;;;;;;;;;4862057;29;20029;-92
2022/12/12 02:34:52;;;;;;;18.45;9.43;;;;;;;;;;4862297;29;20045;-91
2022/12/12 02:37:34;;;;;;;17.10;8.48;;;;;;;;;;4861690;29;20079;-94
2022/12/12 02:40:10;;;;;;;19.60;9.50;;;;;;;;;;4861810;29;20363;-94
2022/12/12 02:42:56;;;;;;;21.33;10.52;;;;;;;;;;4861809;29;20494;-92
2022/12/12 02:45:22;;;;;;;19.52;9.82;;;;;;;;;;4863167;29;20028;-93
2022/12/12 02:47:55;;;;;;;15.35;8.48;;;;;;;;;;4862534;29;20039;-93
2022/12/12 02:50:23;;;;;;;17.00;8.30;;;;;;;;;;4864557;29;20025;-91
2022/12/12 02:52:50;;;;;;;27.60;11.50;;;;;;;;;;4864395;29;20033;-92
2022/12/12 02:55:16;;;;;;;20.95;10.18;;;;;;;;;;4861912;29;20491;-93
2022/12/12 02:57:42;;;;;;;15.48;8.15;;;;;;;;;;4862087;29;20033;-91
2022/12/12 03:00:16;;;;;;;16.30;9.27;;;;;;;;;;4881373;29;20025;-92
2022/12/12 03:02:45;;;;;;;16.20;8.07;;;;;;;;;;4865907;29;20152;-92
2022/12/12 03:08:16;;;;;;;18.13;8.48;;;;;;;;;;4881666;29;20064;-91
2022/12/12 03:10:55;;;;;;;16.23;8.70;;;;;;;;;;4864767;29;20108;-93
2022/12/12 03:13:42;;;;;;;19.38;9.43;;;;;;;;;;4865097;29;20059;-89
2022/12/12 03:16:08;;;;;;;18.58;8.93;;;;;;;;;;4864387;29;20041;-91
2022/12/12 03:18:46;;;;;;;18.40;9.55;;;;;;;;;;4864783;29;20056;-91
2022/12/12 03:21:15;;;;;;;19.45;10.00;;;;;;;;;;4863825;29;20259;-91
2022/12/12 03:23:45;;;;;;;18.20;9.13;;;;;;;;;;4864771;29;20033;-92
2022/12/12 03:35:06;;;;;;;18.23;9.70;;;;;;;;;;4958121;23;20144;-91
2022/12/12 03:37:38;;;;;;;20.83;9.55;;;;;;;;;;4845931;29;20113;-92
2022/12/12 03:40:09;;;;;;;18.80;9.35;;;;;;;;;;4830964;29;20444;-92
2022/12/12 03:42:44;;;;;;;20.02;10.18;;;;;;;;;;4846481;29;20164;-94
2022/12/12 03:45:29;;;;;;;20.75;10.93;;;;;;;;;;4846061;29;20034;-90
2022/12/12 03:48:01;;;;;;;19.10;9.85;;;;;;;;;;4862200;29;20195;-91
2022/12/12 03:50:30;;;;;;;17.80;9.75;;;;;;;;;;4845343;29;20037;-91
2022/12/12 03:53:02;;;;;;;20.50;10.02;;;;;;;;;;4845546;29;20483;-91
2022/12/12 03:55:38;;;;;;;20.55;10.73;;;;;;;;;;4845210;29;20116;-92
2022/12/12 03:58:28;;;;;;;22.48;10.50;;;;;;;;;;4845716;29;20044;-90
2022/12/12 04:00:56;;;;;;;21.25;11.20;;;;;;;;;;4842395;29;20046;-90
2022/12/12 04:03:25;;;;;;;18.58;10.77;;;;;;;;;;4845735;29;20064;-91
2022/12/12 04:06:25;;;;;;;20.23;10.95;;;;;;;;;;4856763;29;20021;-89
2022/12/12 04:14:31;;;;;;;20.10;10.73;;;;;;;;;;4861724;29;20056;-92
2022/12/12 04:16:59;;;;;;;20.48;10.82;;;;;;;;;;4844869;29;20045;-93
2022/12/12 04:25:11;;;;;;;19.25;10.07;;;;;;;;;;4861680;29;20570;-93
2022/12/12 04:27:44;;;;;;;21.58;10.98;;;;;;;;;;4844627;29;20373;-92
2022/12/12 04:30:12;;;;;;;20.07;9.70;;;;;;;;;;4845360;29;20522;-90
2022/12/12 04:32:48;;;;;;;25.70;11.00;;;;;;;;;;4845764;29;20532;-91
2022/12/12 04:35:14;;;;;;;22.73;10.60;;;;;;;;;;4845547;29;20049;-91
2022/12/12 04:38:01;;;;;;;23.17;10.60;;;;;;;;;;4845280;29;20034;-92
2022/12/12 04:40:29;;;;;;;21.02;11.07;;;;;;;;;;4844384;29;20037;-92
2022/12/12 04:43:16;;;;;;;19.00;10.05;;;;;;;;;;4844284;29;20479;-92
2022/12/12 04:45:47;;;;;;;19.58;10.18;;;;;;;;;;4844698;29;20029;-93
2022/12/12 04:48:21;;;;;;;20.38;10.88;;;;;;;;;;4844848;29;20044;-91
2022/12/12 04:50:49;;;;;;;21.45;11.13;;;;;;;;;;4844748;29;20034;-92
2022/12/12 04:53:16;;;;;;;22.80;10.82;;;;;;;;;;4844395;29;20046;-92
2022/12/12 04:55:46;;;;;;;26.35;11.30;;;;;;;;;;4844427;29;20444;-95
2022/12/12 04:58:12;;;;;;;21.17;11.55;;;;;;;;;;4844462;29;20061;-90
2022/12/12 05:00:44;;;;;;;21.02;10.90;;;;;;;;;;4844450;29;20033;-90
2022/12/12 05:03:30;;;;;;;20.80;10.35;;;;;;;;;;4844425;29;20056;-89
2022/12/12 05:06:11;;;;;;;23.05;11.25;;;;;;;;;;4843839;29;20034;-90
2022/12/12 05:08:47;;;;;;;22.85;11.48;;;;;;;;;;4844030;29;20033;-89
2022/12/12 05:11:14;;;;;;;21.30;10.75;;;;;;;;;;4844020;29;20041;-91
2022/12/12 05:13:43;;;;;;;19.83;10.63;;;;;;;;;;4844605;29;20051;-90
2022/12/12 05:16:20;;;;;;;20.88;9.40;;;;;;;;;;4847263;29;20480;-91
2022/12/12 05:18:46;;;;;;;19.73;9.98;;;;;;;;;;4845424;29;20037;-92
2022/12/12 05:21:12;;;;;;;21.35;10.60;;;;;;;;;;4844066;29;20030;-91
2022/12/12 05:23:38;;;;;;;22.33;10.23;;;;;;;;;;4842917;29;20034;-90
2022/12/12 05:26:06;;;;;;;22.60;11.05;;;;;;;;;;4843701;29;20033;-94
2022/12/12 05:28:32;;;;;;;20.52;9.82;;;;;;;;;;4843524;29;20036;-91
2022/12/12 05:30:58;;;;;;;17.83;9.50;;;;;;;;;;4843945;29;20037;-90
2022/12/12 05:33:24;;;;;;;22.30;9.55;;;;;;;;;;4843423;29;20065;-92
2022/12/12 05:35:50;;;;;;;19.20;9.82;;;;;;;;;;4844133;29;20036;-91
2022/12/12 05:38:17;;;;;;;18.27;9.55;;;;;;;;;;4843832;29;20547;-91
2022/12/12 05:40:43;;;;;;;18.95;8.77;;;;;;;;;;4844216;29;20033;-92
2022/12/12 05:43:09;;;;;;;18.33;9.38;;;;;;;;;;4843880;29;20029;-91
2022/12/12 05:45:35;;;;;;;17.05;8.93;;;;;;;;;;4828918;29;20479;-93
2022/12/12 05:48:01;;;;;;;18.00;8.93;;;;;;;;;;4854482;29;20030;-87
2022/12/12 05:50:27;;;;;;;16.58;8.70;;;;;;;;;;4848591;29;20033;-91
2022/12/12 05:52:54;;;;;;;19.02;9.50;;;;;;;;;;4843626;29;20097;-91
2022/12/12 05:55:20;;;;;;;18.83;9.20;;;;;;;;;;4843379;29;20034;-91
2022/12/12 06:00:51;;;;;;;21.13;10.25;;;;;;;;;;4861537;29;20035;-90
2022/12/12 06:03:19;;;;;;;19.10;9.77;;;;;;;;;;4862580;29;20086;-94
2022/12/12 06:05:46;;;;;;;18.30;9.63;;;;;;;;;;4846460;29;20120;-94
2022/12/12 06:11:24;;;;;;;18.52;9.18;;;;;;;;;;4859695;29;20608;-91
2022/12/12 06:24:22;;;;;;;19.98;10.30;;;;;;;;;;4879276;29;20522;-90
2022/12/12 06:26:50;;;;;;;20.67;10.48;;;;;;;;;;4879062;29;20036;-93
2022/12/12 06:29:16;;;;;;;18.65;9.32;;;;;;;;;;4880927;29;20087;-88
2022/12/12 06:31:42;;;;;;;19.10;9.50;;;;;;;;;;4880607;29;20466;-88
2022/12/12 06:34:09;;;;;;;18.52;9.63;;;;;;;;;;4882179;29;20036;-89
2022/12/12 06:36:59;;;;;;;18.17;8.77;;;;;;;;;;4904087;29;20017;-95
2022/12/12 06:39:25;;;;;;;33.22;15.90;;;;;;;;;;4855431;29;20364;-89
2022/12/12 06:41:51;;;;;;;19.35;10.63;;;;;;;;;;4867548;29;20036;-92
2022/12/12 06:44:18;;;;;;;25.23;14.20;;;;;;;;;;4868906;29;20302;-91
2022/12/12 06:46:44;;;;;;;34.00;19.73;;;;;;;;;;4871984;29;20080;-93
2022/12/12 06:49:10;;;;;;;28.77;19.35;;;;;;;;;;4900119;29;20035;-92
2022/12/12 06:51:42;;;;;;;19.77;9.63;;;;;;;;;;4883834;29;20040;-91
2022/12/12 06:54:11;;;;;;;18.57;9.27;;;;;;;;;;4901070;29;20056;-93
2022/12/12 06:56:37;;;;;;;17.75;9.55;;;;;;;;;;4884083;29;20025;-90
2022/12/12 06:59:03;;;;;;;17.02;9.27;;;;;;;;;;4869710;29;20029;-88
2022/12/12 07:01:29;;;;;;;16.83;9.18;;;;;;;;;;4866316;29;20060;-95
2022/12/12 07:03:56;;;;;;;18.33;8.98;;;;;;;;;;4883198;29;20035;-90
2022/12/12 07:06:25;;;;;;;18.33;9.45;;;;;;;;;;4883234;29;20032;-93
2022/12/12 07:08:51;;;;;;;17.60;9.40;;;;;;;;;;4885578;29;20409;-91
2022/12/12 07:11:19;;;;;;;19.38;10.13;;;;;;;;;;4882896;29;20121;-91
2022/12/12 07:13:46;;;;;;;19.92;10.63;;;;;;;;;;4867025;29;20292;-88
2022/12/12 07:16:12;;;;;;;18.65;9.43;;;;;;;;;;4866314;29;20025;-92
2022/12/12 07:18:38;;;;;;;18.90;9.65;;;;;;;;;;4866340;29;20033;-91
2022/12/12 07:21:06;;;;;;;24.88;11.43;;;;;;;;;;4866677;29;20135;-89
2022/12/12 07:23:32;;;;;;;21.75;10.93;;;;;;;;;;4869208;29;20053;-88
2022/12/12 07:25:58;;;;;;;16.33;8.93;;;;;;;;;;4890539;29;20474;-91
2022/12/12 07:28:24;;;;;;;16.70;9.18;;;;;;;;;;4890942;29;20025;-93
2022/12/12 07:30:51;;;;;;;17.55;9.35;;;;;;;;;;4887633;29;20483;-94
2022/12/12 07:33:17;;;;;;;16.27;9.02;;;;;;;;;;4884000;29;20036;-91
2022/12/12 07:35:44;;;;;;;35.20;11.40;;;;;;;;;;4887127;29;20080;-93
2022/12/12 07:38:10;;;;;;;18.55;9.77;;;;;;;;;;4891123;29;20036;-90
2022/12/12 07:40:43;;;;;;;15.90;10.02;;;;;;;;;;4908313;29;20028;-94
2022/12/12 07:43:31;;;;;;;16.67;9.98;;;;;;;;;;4891572;29;20033;-93
2022/12/12 07:46:01;;;;;;;15.73;8.90;;;;;;;;;;4907797;29;20021;-90
2022/12/12 07:48:32;;;;;;;16.58;9.52;;;;;;;;;;4892463;29;20050;-93
2022/12/12 07:51:08;;;;;;;15.68;9.15;;;;;;;;;;4905014;29;20099;-91
2022/12/12 07:53:34;;;;;;;16.60;9.63;;;;;;;;;;4883452;29;20155;-91
2022/12/12 07:56:03;;;;;;;15.25;9.27;;;;;;;;;;4887694;29;20037;-92
2022/12/12 07:58:29;;;;;;;16.83;9.80;;;;;;;;;;4896442;29;20063;-93
2022/12/12 08:00:58;;;;;;;15.85;9.10;;;;;;;;;;4888089;29;20033;-93
2022/12/12 08:03:33;;;;;;;15.68;9.80;;;;;;;;;;4890056;29;20047;-94
2022/12/12 08:05:59;;;;;;;15.15;9.65;;;;;;;;;;4887641;29;20053;-91
2022/12/12 08:08:25;;;;;;;17.48;9.88;;;;;;;;;;4885616;29;20081;-90
2022/12/12 08:11:30;;;;;;;13.52;8.55;;;;;;;;;;4867488;29;20051;-93
2022/12/12 08:14:09;;;;;;;13.25;8.55;;;;;;;;;;4869055;29;20037;-85
2022/12/12 08:16:53;;;;;;;15.75;9.27;;;;;;;;;;4873010;29;20044;-91
2022/12/12 08:19:22;;;;;;;14.98;9.52;;;;;;;;;;4871139;29;20352;-93
2022/12/12 08:21:52;;;;;;;13.55;9.02;;;;;;;;;;4868956;29;20031;-92
2022/12/12 08:24:21;;;;;;;14.55;9.10;;;;;;;;;;4864184;29;20069;-92
2022/12/12 08:26:49;;;;;;;14.85;8.18;;;;;;;;;;4862848;29;20116;-91
2022/12/12 08:29:15;;;;;;;15.50;9.40;;;;;;;;;;4862362;29;20070;-92
2022/12/12 08:31:47;;;;;;;13.18;8.70;;;;;;;;;;4862804;29;20116;-92
2022/12/12 08:34:14;;;;;;;16.05;9.77;;;;;;;;;;4862763;29;20041;-92
2022/12/12 08:36:42;;;;;;;14.70;9.27;;;;;;;;;;4866884;29;20460;-91
2022/12/12 08:39:44;;;;;;;16.85;8.95;;;;;;;;;;4871548;29;20112;-91
2022/12/12 08:42:12;;;;;;;16.90;8.95;;;;;;;;;;4841680;29;20033;-89
2022/12/12 08:44:41;;;;;;;15.40;8.55;;;;;;;;;;4874526;29;20038;-92
2022/12/12 08:47:19;;;;;;;18.67;8.82;;;;;;;;;;4875223;29;20045;-95
2022/12/12 08:49:58;;;;;;;16.75;9.18;;;;;;;;;;4873700;29;20052;-94
2022/12/12 08:52:53;;;;;;;14.93;8.80;;;;;;;;;;4850174;29;20045;-92
2022/12/12 09:39:05;;;;;;;13.48;8.38;;;;;;;;;;4891438;29;20045;-93
2022/12/12 09:41:40;;;;;;;17.25;9.68;;;;;;;;;;4877991;29;20112;-92
2022/12/12 09:44:14;;;;;;;15.60;9.45;;;;;;;;;;4893311;29;20061;-89
2022/12/12 09:47:09;;;;;;;16.40;10.50;;;;;;;;;;4879322;29;20057;-90
2022/12/12 09:49:47;;;;;;;14.25;9.50;;;;;;;;;;4881339;29;20081;-92
2022/12/12 09:52:19;;;;;;;15.63;9.18;;;;;;;;;;4880758;29;20044;-92
2022/12/12 09:54:45;;;;;;;14.98;9.02;;;;;;;;;;4878865;29;20039;-91
2022/12/12 09:57:11;;;;;;;16.83;9.05;;;;;;;;;;4878851;29;20097;-90
2022/12/12 09:59:44;;;;;;;18.77;10.43;;;;;;;;;;4880861;29;20033;-90
2022/12/12 10:02:29;;;;;;;18.75;10.02;;;;;;;;;;4877020;29;20033;-92
2022/12/12 10:05:05;;;;;;;15.93;9.00;;;;;;;;;;4879064;29;20089;-92
2022/12/12 10:07:47;;;;;;;17.17;9.77;;;;;;;;;;4879222;29;20053;-92
2022/12/12 10:10:22;;;;;;;16.75;9.20;;;;;;;;;;4880630;29;20021;-88
2022/12/12 10:12:49;;;;;;;14.50;8.60;;;;;;;;;;4894880;29;20097;-91
2022/12/12 10:15:30;;;;;;;16.15;8.70;;;;;;;;;;4900016;29;20033;-93
2022/12/12 10:17:58;;;;;;;15.45;9.35;;;;;;;;;;4900539;29;20017;-90
2022/12/12 10:20:29;;;;;;;16.35;9.20;;;;;;;;;;4899248;29;20013;-92
2022/12/12 10:23:25;;;;;;;15.15;9.40;;;;;;;;;;4900542;29;20033;-91
2022/12/12 10:25:55;;;;;;;15.77;8.88;;;;;;;;;;4883237;29;20065;-92
2022/12/12 10:28:30;;;;;;;14.63;9.00;;;;;;;;;;4896122;29;20065;-90
2022/12/12 10:31:15;;;;;;;13.68;8.32;;;;;;;;;;4894574;29;20061;-92
2022/12/12 10:33:55;;;;;;;14.48;8.82;;;;;;;;;;4898719;29;20051;-87
2022/12/12 10:36:25;;;;;;;14.82;8.15;;;;;;;;;;4895400;29;20039;-92
2022/12/12 10:39:01;;;;;;;14.68;8.85;;;;;;;;;;4886165;29;20092;-92
2022/12/12 10:41:50;;;;;;;15.52;7.90;;;;;;;;;;4886746;29;20041;-88
2022/12/12 10:44:31;;;;;;;15.73;8.98;;;;;;;;;;4860504;29;20033;-90
2022/12/12 10:47:25;;;;;;;13.65;7.97;;;;;;;;;;4888564;29;20056;-92
2022/12/12 10:49:59;;;;;;;13.52;7.38;;;;;;;;;;4884991;29;20485;-91
2022/12/12 10:52:25;;;;;;;16.10;8.05;;;;;;;;;;4884289;29;20051;-89
2022/12/12 11:19:45;;;;;;;16.02;9.13;;;;;;;;;;4880177;29;20053;-90
2022/12/12 11:22:12;;;;;;;14.18;8.50;;;;;;;;;;4868561;29;20124;-90
2022/12/12 11:24:41;;;;;;;13.77;8.15;;;;;;;;;;4866397;29;20056;-91
2022/12/12 13:28:02;;;;;;;10.93;5.90;;;;;;;;;;4908114;23;20080;-93
2022/12/12 13:31:04;;;;;;;9.60;5.57;;;;;;;;;;4892887;29;20092;-93
2022/12/12 14:19:35;;;;;;;10.32;5.75;;;;;;;;;;4868831;29;20050;-91
2022/12/12 14:22:01;;;;;;;10.85;6.20;;;;;;;;;;4850256;29;20105;-90
2022/12/12 14:33:45;;;;;;;9.98;4.88;;;;;;;;;;4893299;23;20664;-89
2022/12/12 14:36:30;;;;;;;10.50;4.90;;;;;;;;;;4845797;29;20021;-91
2022/12/12 14:42:07;;;;;;;9.88;5.32;;;;;;;;;;4865950;29;20076;-91
2022/12/12 14:44:45;;;;;;;10.38;5.07;;;;;;;;;;4846146;29;20402;-93
2022/12/12 14:47:17;;;;;;;10.75;5.63;;;;;;;;;;4845870;29;20029;-93
2022/12/12 14:58:27;;;;;;;9.48;5.50;;;;;;;;;;4825972;29;20523;-91
2022/12/12 15:07:37;;;;;;;;;;;;;;;;;;;;;
2022/12/12 15:10:42;;;;;;;10.48;6.03;;;;;;;;;;4770486;30;20054;-92
2022/12/12 15:14:01;;;;;;;11.57;6.47;;;;;;;;;;4776914;30;20129;-93
2022/12/12 15:23:03;;;;;;;8.85;4.88;;;;;;;;;;4749745;30;20071;-93
2022/12/12 15:25:41;;;;;;;10.27;5.68;;;;;;;;;;4748140;30;20107;-93
2022/12/12 15:28:13;;;;;;;8.90;5.53;;;;;;;;;;4795440;29;20035;-95
2022/12/12 15:30:41;;;;;;;11.93;5.80;;;;;;;;;;4813646;29;20047;-93
2022/12/12 15:33:18;;;;;;;9.98;5.32;;;;;;;;;;4812600;29;20050;-93
2022/12/12 15:35:56;;;;;;;11.90;6.35;;;;;;;;;;4851362;29;20029;-91
2022/12/12 15:38:23;;;;;;;12.10;7.40;;;;;;;;;;4849780;29;20042;-93
2022/12/12 15:40:56;;;;;;;11.90;6.68;;;;;;;;;;4838986;29;20034;-94
2022/12/12 15:43:24;;;;;;;12.07;6.53;;;;;;;;;;4829200;29;20522;-94
2022/12/12 15:45:57;;;;;;;9.75;5.88;;;;;;;;;;4873581;29;20029;-95
2022/12/12 15:48:24;;;;;;;;;;;;;;;;;;4874063;29;20053;-96
2022/12/12 15:51:00;;;;;;;10.85;5.60;;;;;;;;;;4849797;29;19924;-94
2022/12/12 15:53:26;;;;;;;11.98;5.88;;;;;;;;;;4884030;29;20050;-90
2022/12/12 15:56:25;;;;;;;12.48;6.65;;;;;;;;;;4887328;29;20034;-91
2022/12/12 15:58:53;;;;;;;8.95;5.45;;;;;;;;;;4850425;29;20579;-93
2022/12/12 16:01:26;;;;;;;9.60;5.47;;;;;;;;;;4856666;29;20252;-92
2022/12/12 16:03:53;;;;;;;10.90;6.03;;;;;;;;;;4852291;29;20024;-91
2022/12/12 16:06:22;;;;;;;9.93;5.78;;;;;;;;;;4870268;29;20075;-91
2022/12/12 16:08:59;;;;;;;14.45;6.65;;;;;;;;;;4884700;29;20101;-94
2022/12/12 16:11:40;;;;;;;12.88;6.53;;;;;;;;;;4852600;29;20057;-94
2022/12/12 16:14:22;;;;;;;14.10;7.07;;;;;;;;;;4852209;29;20111;-92
2022/12/12 16:17:23;;;;;;;14.65;7.75;;;;;;;;;;4850538;29;20049;-92
2022/12/12 16:22:38;;;;;;;11.32;5.85;;;;;;;;;;4872224;29;20050;-94
2022/12/12 16:35:24;;;;;;;11.73;6.63;;;;;;;;;;4882757;29;20702;-92
2022/12/12 16:37:54;;;;;;;14.55;7.57;;;;;;;;;;4866022;29;20041;-92
2022/12/12 16:40:20;;;;;;;13.90;6.57;;;;;;;;;;4872246;29;20036;-93
2022/12/12 16:42:54;;;;;;;10.55;5.90;;;;;;;;;;4867259;29;20021;-92
2022/12/12 16:45:20;;;;;;;10.90;6.43;;;;;;;;;;4868336;29;20115;-94
2022/12/12 16:47:47;;;;;;;10.85;5.68;;;;;;;;;;4868623;29;20036;-95
2022/12/12 16:50:13;;;;;;;11.07;6.50;;;;;;;;;;4868556;29;20176;-94
2022/12/12 16:52:39;;;;;;;14.30;7.45;;;;;;;;;;4870299;29;20036;-93
2022/12/12 16:55:26;;;;;;;11.10;6.50;;;;;;;;;;4873541;29;20029;-94
2022/12/12 16:57:52;;;;;;;9.77;5.63;;;;;;;;;;4871246;29;20112;-94
2022/12/12 17:03:25;;;;;;;11.23;5.72;;;;;;;;;;4894327;29;20104;-93
2022/12/12 17:09:01;;;;;;;13.48;6.88;;;;;;;;;;4888201;29;20161;-95
2022/12/12 17:14:32;;;;;;;11.07;6.07;;;;;;;;;;4883419;29;20053;-94
2022/12/12 17:17:02;;;;;;;10.77;6.10;;;;;;;;;;4866039;29;20448;-92
2022/12/12 17:35:02;;;;;;;12.30;6.32;;;;;;;;;;4883189;29;20399;-93
2022/12/12 17:37:28;;;;;;;10.75;5.72;;;;;;;;;;4866008;29;20494;-92
2022/12/12 17:39:54;;;;;;;12.07;5.80;;;;;;;;;;4893238;23;20025;-91
2022/12/12 17:42:20;;;;;;;14.32;7.00;;;;;;;;;;4863043;29;20136;-92
2022/12/12 17:47:15;;;;;;;11.68;6.07;;;;;;;;;;4874917;23;20050;-92
2022/12/12 17:49:41;;;;;;;9.50;5.43;;;;;;;;;;4849582;29;20036;-91
2022/12/12 17:52:09;;;;;;;13.05;5.95;;;;;;;;;;4848630;29;20060;-91
2022/12/12 17:54:35;;;;;;;10.63;5.72;;;;;;;;;;4847647;29;20102;-92
2022/12/12 17:57:04;;;;;;;10.15;5.50;;;;;;;;;;4847093;29;20089;-91
2022/12/12 17:59:30;;;;;;;11.95;6.25;;;;;;;;;;4849288;29;20068;-92
2022/12/12 18:01:56;;;;;;;13.82;6.80;;;;;;;;;;4847418;29;20040;-91
2022/12/12 18:04:23;;;;;;;9.25;5.43;;;;;;;;;;4847620;29;20120;-90
2022/12/12 18:09:52;;;;;;;11.10;5.70;;;;;;;;;;4860587;29;20441;-89
2022/12/12 18:12:34;;;;;;;10.55;5.63;;;;;;;;;;4846932;29;20120;-89
2022/12/12 18:15:00;;;;;;;10.35;5.78;;;;;;;;;;4847378;29;20109;-91
2022/12/12 18:17:26;;;;;;;9.68;5.55;;;;;;;;;;4867507;29;20084;-91
2022/12/12 18:25:04;;;;;;;11.00;5.80;;;;;;;;;;4877853;23;20089;-91
2022/12/12 18:27:33;;;;;;;11.75;6.13;;;;;;;;;;4846746;29;20044;-94
2022/12/12 18:29:59;;;;;;;11.88;5.97;;;;;;;;;;4849507;29;20033;-92
2022/12/12 18:32:26;;;;;;;12.85;7.07;;;;;;;;;;4852231;29;20026;-95
2022/12/12 18:37:39;;;;;;;10.63;5.75;;;;;;;;;;4867701;29;20041;-94
2022/12/12 18:40:06;;;;;;;10.30;5.40;;;;;;;;;;4856078;29;20057;-94
2022/12/12 18:42:33;;;;;;;10.15;5.60;;;;;;;;;;4858055;29;20066;-96
2022/12/12 18:45:37;;;;;;;10.38;5.40;;;;;;;;;;4869606;29;20038;-96
2022/12/12 18:48:08;;;;;;;9.80;5.32;;;;;;;;;;4854528;29;20419;-95
2022/12/12 18:50:34;;;;;;;10.23;5.55;;;;;;;;;;4838047;29;20041;-92
2022/12/12 18:53:01;;;;;;;11.15;5.50;;;;;;;;;;4852440;29;20100;-92
2022/12/12 18:55:29;;;;;;;11.05;5.57;;;;;;;;;;4852425;29;20033;-94
2022/12/12 18:57:55;;;;;;;10.45;5.43;;;;;;;;;;4854419;29;20029;-93
2022/12/12 19:00:30;;;;;;;10.00;5.45;;;;;;;;;;4880446;29;20058;-94
2022/12/12 19:02:56;;;;;;;10.75;5.43;;;;;;;;;;4841213;29;20381;-95
2022/12/12 19:05:28;;;;;;;10.80;5.75;;;;;;;;;;4867232;29;20029;-94
2022/12/12 19:08:11;;;;;;;;;;;;;;;;;;;;;
2022/12/12 19:10:59;;;;;;;13.15;6.15;;;;;;;;;;4858732;29;20045;-93
2022/12/12 19:13:26;;;;;;;11.63;6.32;;;;;;;;;;4854440;29;20452;-94
2022/12/12 19:16:13;;;;;;;11.80;6.28;;;;;;;;;;4836881;29;20045;-93
2022/12/12 19:18:39;;;;;;;11.27;5.80;;;;;;;;;;4855703;29;20057;-91
2022/12/12 19:21:08;;;;;;;12.52;6.15;;;;;;;;;;4870117;29;20029;-93
2022/12/12 19:23:44;;;;;;;10.63;5.68;;;;;;;;;;4868965;29;20057;-93
2022/12/12 19:44:20;;;;;;;12.85;7.18;;;;;;;;;;2250073;23;20118;-93
2022/12/12 19:46:46;;;;;;;12.02;6.40;;;;;;;;;;4828049;29;20058;-92
2022/12/12 20:00:30;;;;;;;13.93;6.45;;;;;;;;;;4891045;29;20044;-93
2022/12/12 20:06:04;;;;;;;13.18;6.85;;;;;;;;;;4896423;23;20105;-92
2022/12/12 20:08:34;;;;;;;11.98;6.95;;;;;;;;;;4869000;29;20115;-92
2022/12/12 20:18:42;;;;;;;14.48;7.25;;;;;;;;;;4869798;29;20499;-96
2022/12/12 20:21:10;;;;;;;13.57;7.88;;;;;;;;;;4867938;29;20040;-94
2022/12/12 20:23:38;;;;;;;13.77;7.30;;;;;;;;;;4851661;29;20064;-95
2022/12/12 20:26:26;;;;;;;13.95;7.65;;;;;;;;;;4852852;29;20052;-95
2022/12/12 20:29:17;;;;;;;17.52;8.25;;;;;;;;;;4855936;29;20041;-95
2022/12/12 20:31:44;;;;;;;14.13;7.53;;;;;;;;;;4872745;29;20026;-95
2022/12/12 20:34:12;;;;;;;12.90;7.20;;;;;;;;;;4851117;29;20049;-95
2022/12/12 20:36:40;;;;;;;12.60;7.38;;;;;;;;;;4868550;29;20030;-95
2022/12/12 20:39:14;;;;;;;15.82;8.07;;;;;;;;;;4852671;29;20034;-94
2022/12/12 20:41:41;;;;;;;14.50;7.47;;;;;;;;;;4853979;29;20061;-94
2022/12/12 20:44:11;;;;;;;14.48;7.72;;;;;;;;;;4867419;29;20037;-94
2022/12/12 20:46:39;;;;;;;15.48;8.23;;;;;;;;;;4843499;29;20038;-92
2022/12/12 20:49:09;;;;;;;14.27;7.53;;;;;;;;;;4829114;29;20086;-91
2022/12/12 20:51:36;;;;;;;13.90;7.97;;;;;;;;;;4840804;29;20046;-90
2022/12/12 20:54:04;;;;;;;14.93;8.27;;;;;;;;;;4838160;29;20049;-92
2022/12/12 20:56:31;;;;;;;17.73;9.23;;;;;;;;;;4846055;29;20034;-91
2022/12/12 20:58:58;;;;;;;14.95;8.65;;;;;;;;;;4829850;29;20091;-92
2022/12/12 21:01:29;;;;;;;16.52;9.20;;;;;;;;;;4828377;29;20166;-90
2022/12/12 21:03:55;;;;;;;16.63;8.85;;;;;;;;;;4828552;29;20131;-93
2022/12/12 21:06:22;;;;;;;17.00;8.43;;;;;;;;;;4828508;29;20082;-91
2022/12/12 21:08:50;;;;;;;14.05;8.10;;;;;;;;;;4828283;29;20033;-90
2022/12/12 21:11:17;;;;;;;18.95;9.25;;;;;;;;;;4828185;29;20058;-92
2022/12/12 21:13:43;;;;;;;18.05;10.20;;;;;;;;;;4828437;29;20042;-91
2022/12/12 21:16:10;;;;;;;16.83;8.88;;;;;;;;;;4828364;29;20034;-91
2022/12/12 21:18:36;;;;;;;17.77;8.85;;;;;;;;;;4825305;29;20065;-92
2022/12/12 21:21:03;;;;;;;17.75;9.38;;;;;;;;;;4824919;29;20469;-92
2022/12/12 21:23:29;;;;;;;15.23;8.63;;;;;;;;;;4824965;29;20023;-91
2022/12/12 21:25:55;;;;;;;15.38;9.13;;;;;;;;;;4824804;29;20034;-91
2022/12/12 21:28:22;;;;;;;15.23;8.40;;;;;;;;;;4825023;29;20481;-92
2022/12/12 21:31:13;;;;;;;14.27;8.30;;;;;;;;;;4824801;29;20030;-92
2022/12/12 21:33:39;;;;;;;15.48;8.18;;;;;;;;;;4825000;29;20041;-92
2022/12/12 21:36:10;;;;;;;15.20;7.95;;;;;;;;;;4824681;29;20039;-92
2022/12/12 21:38:36;;;;;;;15.98;8.80;;;;;;;;;;4824809;29;20030;-94
2022/12/12 21:41:07;;;;;;;15.02;8.38;;;;;;;;;;4824889;29;20030;-93
2022/12/12 21:43:34;;;;;;;13.88;7.63;;;;;;;;;;4825929;29;20034;-94
2022/12/12 21:46:07;;;;;;;13.85;8.05;;;;;;;;;;4825321;29;20035;-93